Aurora, Illinois
Current Conditions -  °F | °C
As of 3:52 AM on Friday 31 Oct 2014 (Local Time) from KARR Reporting Station
Overcast Overcast  
Wind Chill: 37°   Ceiling: 4200
Heat Index: 43°   Visibility: 10mi
Dew Point: 34°   Wind: 12mph
Humidity: 71%   Direction: 330°NNW
Pressure: 30.05"   Gusts: NA
Location:  41.76°N, 88.31°W
Report Text: KARR 310852Z AUTO 33010KT 10SM OVC042 06/01 A3005 RMK AO2 PK WND 34026/0810 RAE01B05E40 SLP179 P0000 60000 T00610011 53001
Loading
Personal Weather Stations






























Interactive Weather Map
Tropical Storm Tracking
New forecast layout! Learn more

10-Day Weather Forecast

Advertisements
Track Severe Weather on mobile